Portada
METAR-TAF:

METAR-TAF

Aeroports :

La Grande-4, Quebec, Canadà

latitud: 53-45N, longitud: 073-40W, altitud: 306 m

Observació

L'informe es va fer fa 22 minuts, a les 11:49 UTC
Vent 8 kt del Sud
Temperatura -17°C
Humitat 77%
Pressió 1015 hPa
Visibilitat: 8.0 km
Cel cobert a una alçada de 2900 ft
neu

METAR: CYAH 181149Z AUTO 19008KT 5SM -SN OVC029 M17/M20 A2997 RMK SLP187

Hora: 07:11 (12:11 UTC)

Pronòstic

L'informe es va fer fa 33 minuts, a les 11:38 UTC
Pronòstic vàlid del 18 a les 12 UTC al 18 a les 22 UTC
Vent 10 kt del Sud
Visibilitat: 9.7 km
Cel cobert a una alçada de 3000 ft
neu
Temporalment
l' 18 a les 12 UTC al 18 a les 22 UTC
Visibilitat: 3.2 km
Cel cobert a una alçada de 2000 ft
neu
Evolucionant progressivament
l' 18 a les 12 UTC al 18 a les 14 UTC
Vent 12 kt del Sud/Sud-Oest amb ràfegues de 22 kt

TAF: CYAH 181138Z 1812/1822 19010KT 6SM -SN OVC030 TEMPO 1812/1822 2SM -SN OVC020 BECMG 1812/1814 20012G22KT RMK FCST BASED ON AUTO OBS. NXT FCST BY 181800Z

Observacions i pronòstics meteorològics de més de 4000 aeroports (METAR i TAF).

Les estacions disponibles són els punts grocs i vermells al mapa.

Posi el ratolí al punt desitjat per veure el nom de l'estació.

Feu clic per veure les observacions i els pronòstics meteorològics.

Per canviar el mapa: feu clic els botons verds amb una creu de color negre per apropar; al botó verd amb un guió per allunyar la imatge; o en les fletxes verdes per a mapes adjacents.


METAR-TAF: